Time;durP1;ratioP1;P1;durP2;ratioP2;P2;SDS_P1;SDS_P2;PMS_P1;PMS_P2;Temp;Humidity;BMP_temperature;BMP_pressure;BME280_temperature;BME280_humidity;BME280_pressure;Samples;Min_cycle;Max_cycle;Signal;HPM_P1;HPM_P2
2023/09/08 00:02:26;;;;;;;;;;;15.00;99.90;;;;;;5083652;28;20036;-64
2023/09/08 00:04:57;;;;;;;6.40;5.47;;;15.00;99.90;;;;;;5083324;28;19931;-64
2023/09/08 00:07:29;;;;;;;7.95;5.05;;;14.90;99.90;;;;;;5083943;28;20036;-64
2023/09/08 00:10:01;;;;;;;7.57;5.70;;;14.90;99.90;;;;;;5081195;28;20048;-64
2023/09/08 00:12:33;;;;;;;8.60;5.57;;;14.80;99.90;;;;;;5080199;28;20047;-64
2023/09/08 00:15:06;;;;;;;7.15;5.30;;;14.80;99.90;;;;;;5087668;28;20040;-64
2023/09/08 00:17:37;;;;;;;9.10;5.35;;;14.90;99.90;;;;;;5079671;28;20520;-64
2023/09/08 00:20:10;;;;;;;7.18;5.60;;;14.80;99.90;;;;;;5084692;28;20059;-65
2023/09/08 00:22:42;;;;;;;6.25;5.40;;;14.70;99.90;;;;;;5083147;28;20137;-64
2023/09/08 00:25:13;;;;;;;7.13;5.35;;;14.70;99.90;;;;;;5084804;28;20044;-64
2023/09/08 00:27:45;;;;;;;8.88;6.65;;;14.70;99.90;;;;;;5084556;28;20055;-65
2023/09/08 00:30:17;;;;;;;7.20;5.95;;;14.80;99.90;;;;;;5069669;28;20051;-64
2023/09/08 00:32:44;;;;;;;6.55;5.38;;;14.70;99.90;;;;;;5083030;28;20054;-65
2023/09/08 00:35:16;;;;;;;7.07;6.28;;;14.70;99.90;;;;;;5084958;28;20047;-64
2023/09/08 00:37:43;;;;;;;7.35;5.60;;;14.70;99.90;;;;;;5081601;28;20131;-64
2023/09/08 00:40:15;;;;;;;6.20;5.60;;;14.70;99.90;;;;;;5067388;28;20044;-64
2023/09/08 00:42:47;;;;;;;8.05;6.43;;;14.60;99.90;;;;;;5062708;28;20538;-64
2023/09/08 00:45:20;;;;;;;6.82;6.13;;;14.60;99.90;;;;;;5087363;28;20044;-64
2023/09/08 00:47:52;;;;;;;7.53;5.60;;;14.50;99.90;;;;;;5077304;28;20040;-66
2023/09/08 00:50:24;;;;;;;7.10;6.25;;;14.50;99.90;;;;;;5087191;28;20051;-64
2023/09/08 00:52:55;;;;;;;9.77;6.25;;;14.40;99.90;;;;;;5083747;28;20048;-64
2023/09/08 00:55:27;;;;;;;6.22;5.53;;;14.40;99.90;;;;;;5084007;28;20060;-64
2023/09/08 00:58:00;;;;;;;6.68;5.65;;;14.50;99.90;;;;;;5084178;28;20048;-64
2023/09/08 01:00:32;;;;;;;8.63;5.50;;;14.50;99.90;;;;;;5085378;28;20044;-65
2023/09/08 01:03:04;;;;;;;8.70;6.20;;;14.50;99.90;;;;;;5086208;28;20040;-64
2023/09/08 01:05:38;;;;;;;6.82;5.45;;;14.40;99.90;;;;;;5080015;28;20051;-65
2023/09/08 01:08:10;;;;;;;6.07;5.35;;;14.40;99.90;;;;;;5080642;28;20526;-64
2023/09/08 01:10:42;;;;;;;9.55;5.95;;;14.40;99.90;;;;;;5067861;28;20540;-64
2023/09/08 01:13:14;;;;;;;9.02;6.45;;;14.40;99.90;;;;;;5080791;28;20055;-65
2023/09/08 01:15:45;;;;;;;8.38;5.88;;;14.30;99.90;;;;;;5082240;28;20044;-64
2023/09/08 01:18:17;;;;;;;6.32;5.50;;;14.40;99.90;;;;;;5079997;28;20512;-64
2023/09/08 01:21:09;;;;;;;8.13;5.60;;;14.40;99.90;;;;;;5085803;28;20109;-64
2023/09/08 01:24:27;;;;;;;7.35;5.88;;;14.40;99.90;;;;;;5083713;28;20055;-64
2023/09/08 01:26:59;;;;;;;7.05;5.68;;;14.30;99.90;;;;;;5069833;28;20044;-64
2023/09/08 01:29:32;;;;;;;7.05;6.15;;;14.30;99.90;;;;;;5081289;28;20043;-64
2023/09/08 01:32:04;;;;;;;6.60;5.90;;;14.20;99.90;;;;;;5085981;28;20679;-64
2023/09/08 01:34:39;;;;;;;7.47;5.80;;;14.20;99.90;;;;;;5082041;28;20539;-64
2023/09/08 01:37:11;;;;;;;8.95;5.85;;;14.20;99.90;;;;;;5087349;28;20627;-64
2023/09/08 01:39:43;;;;;;;7.25;5.95;;;14.20;99.90;;;;;;5085669;28;20040;-64
2023/09/08 01:42:15;;;;;;;7.72;6.05;;;14.20;99.90;;;;;;5079570;28;20038;-64
2023/09/08 01:44:46;;;;;;;6.30;5.70;;;14.10;99.90;;;;;;5090137;28;20126;-64
2023/09/08 01:47:18;;;;;;;10.10;5.75;;;14.10;99.90;;;;;;5082450;28;20524;-65
2023/09/08 01:49:50;;;;;;;7.47;6.15;;;14.10;99.90;;;;;;5087786;28;20508;-64
2023/09/08 01:52:22;;;;;;;8.02;5.95;;;14.10;99.90;;;;;;5085161;28;20123;-64
2023/09/08 01:54:54;;;;;;;6.78;5.78;;;14.00;99.90;;;;;;5072461;28;20040;-65
2023/09/08 01:57:27;;;;;;;10.60;5.75;;;14.00;99.90;;;;;;5087761;28;20069;-65
2023/09/08 01:59:59;;;;;;;8.75;7.53;;;14.00;99.90;;;;;;5088018;28;20122;-64
2023/09/08 02:02:38;;;;;;;6.88;5.88;;;13.90;99.90;;;;;;5086260;28;20052;-64
2023/09/08 02:05:06;;;;;;;7.18;5.97;;;13.90;99.90;;;;;;5069505;28;20090;-64
2023/09/08 02:07:38;;;;;;;10.88;6.40;;;13.90;99.90;;;;;;5081730;28;20046;-65
2023/09/08 02:10:10;;;;;;;7.15;6.35;;;13.90;99.90;;;;;;5070874;28;20495;-64
2023/09/08 02:12:42;;;;;;;6.22;5.43;;;13.90;99.90;;;;;;5088135;28;20032;-65
2023/09/08 02:15:17;;;;;;;8.25;6.30;;;13.80;99.90;;;;;;5088259;28;20063;-64
2023/09/08 02:17:56;;;;;;;7.45;5.88;;;13.80;99.90;;;;;;5078394;28;20044;-64
2023/09/08 02:20:28;;;;;;;7.65;5.75;;;13.80;99.90;;;;;;5088334;28;20064;-64
2023/09/08 02:23:05;;;;;;;6.88;6.18;;;13.70;99.90;;;;;;5083974;28;20606;-65
2023/09/08 02:25:37;;;;;;;8.10;5.90;;;13.70;99.90;;;;;;5087351;28;20059;-65
2023/09/08 02:28:10;;;;;;;7.25;5.45;;;13.70;99.90;;;;;;5085096;28;20595;-64
2023/09/08 02:30:42;;;;;;;7.00;5.45;;;13.60;99.90;;;;;;5087402;28;20049;-65
2023/09/08 02:33:14;;;;;;;6.78;6.07;;;13.50;99.90;;;;;;5087134;28;20036;-65
2023/09/08 02:35:46;;;;;;;6.97;5.78;;;13.40;99.90;;;;;;5086109;28;20063;-65
2023/09/08 02:38:18;;;;;;;9.47;6.80;;;13.30;99.90;;;;;;5086864;28;20511;-64
2023/09/08 02:40:50;;;;;;;7.93;5.63;;;13.30;99.90;;;;;;5086744;28;20385;-64
2023/09/08 02:43:23;;;;;;;6.75;5.80;;;13.30;99.90;;;;;;5083934;28;20481;-64
2023/09/08 02:45:55;;;;;;;8.25;5.13;;;13.30;99.90;;;;;;5086683;28;20597;-64
2023/09/08 02:48:27;;;;;;;8.13;5.70;;;13.40;99.90;;;;;;5066303;28;20046;-65
2023/09/08 02:51:00;;;;;;;9.00;6.10;;;13.30;99.90;;;;;;5072552;28;20127;-64
2023/09/08 02:53:33;;;;;;;6.95;6.03;;;13.30;99.90;;;;;;5088966;28;20480;-64
2023/09/08 02:56:05;;;;;;;6.78;5.65;;;13.30;99.90;;;;;;5085987;28;20428;-64
2023/09/08 02:58:37;;;;;;;9.18;6.38;;;13.30;99.90;;;;;;5068243;28;20066;-65
2023/09/08 03:01:20;;;;;;;8.35;6.18;;;13.30;99.90;;;;;;5067654;28;20466;-64
2023/09/08 03:03:52;;;;;;;8.23;5.73;;;13.30;99.90;;;;;;5087450;28;20042;-64
2023/09/08 03:06:24;;;;;;;8.30;6.18;;;13.30;99.90;;;;;;5081511;28;20047;-64
2023/09/08 03:08:58;;;;;;;7.07;5.35;;;13.30;99.90;;;;;;5071862;28;20055;-65
2023/09/08 03:11:29;;;;;;;8.75;6.03;;;13.30;99.90;;;;;;5076246;28;20588;-65
2023/09/08 03:14:01;;;;;;;7.78;5.72;;;13.30;99.90;;;;;;5072145;28;20051;-65
2023/09/08 03:16:33;;;;;;;7.85;6.60;;;13.20;99.90;;;;;;5077708;28;20043;-65
2023/09/08 03:19:05;;;;;;;8.05;5.63;;;13.20;99.90;;;;;;5086950;28;20044;-65
2023/09/08 03:21:37;;;;;;;10.47;6.43;;;13.20;99.90;;;;;;5086773;28;20047;-67
2023/09/08 03:24:09;;;;;;;8.13;6.35;;;13.20;99.90;;;;;;5087490;28;20990;-65
2023/09/08 03:26:41;;;;;;;8.68;6.32;;;13.20;99.90;;;;;;5087344;28;20040;-64
2023/09/08 03:29:13;;;;;;;7.32;6.00;;;13.20;99.90;;;;;;5085997;28;20166;-64
2023/09/08 03:31:45;;;;;;;9.32;5.93;;;13.20;99.90;;;;;;5086936;28;20048;-65
2023/09/08 03:34:20;;;;;;;7.18;6.07;;;13.20;99.90;;;;;;5088745;28;20531;-65
2023/09/08 03:36:53;;;;;;;7.60;5.68;;;13.20;99.90;;;;;;5100476;28;20097;-65
2023/09/08 03:39:25;;;;;;;8.73;6.05;;;13.10;99.90;;;;;;5082178;28;20048;-65
2023/09/08 03:41:57;;;;;;;7.53;6.13;;;13.10;99.90;;;;;;5077408;28;20041;-64
2023/09/08 03:44:29;;;;;;;8.82;5.97;;;13.10;99.90;;;;;;5087744;28;20048;-67
2023/09/08 03:47:02;;;;;;;10.00;6.32;;;13.10;99.90;;;;;;5078102;28;20044;-71
2023/09/08 03:49:35;;;;;;;8.38;5.95;;;13.10;99.90;;;;;;5071485;28;20052;-66
2023/09/08 03:52:07;;;;;;;12.80;6.10;;;13.10;99.90;;;;;;5086906;28;20048;-65
2023/09/08 03:54:39;;;;;;;7.15;6.03;;;13.10;99.90;;;;;;5102376;28;20036;-65
2023/09/08 03:57:11;;;;;;;10.68;5.93;;;13.10;99.90;;;;;;5084713;28;20062;-65
2023/09/08 03:59:43;;;;;;;10.80;6.07;;;13.10;99.90;;;;;;5085989;28;20071;-65
2023/09/08 04:02:10;;;;;;;7.47;5.75;;;13.00;99.90;;;;;;5083600;28;20279;-64
2023/09/08 04:04:42;;;;;;;9.15;6.60;;;13.00;99.90;;;;;;5086425;28;20056;-66
2023/09/08 04:07:14;;;;;;;10.40;6.15;;;13.00;99.90;;;;;;5097889;28;20048;-65
2023/09/08 04:09:46;;;;;;;7.55;6.32;;;12.90;99.90;;;;;;5087625;28;20051;-66
2023/09/08 04:12:18;;;;;;;7.13;6.10;;;12.90;99.90;;;;;;5081049;28;20079;-65
2023/09/08 04:14:45;;;;;;;7.63;5.90;;;12.90;99.90;;;;;;5083000;28;20472;-65
2023/09/08 04:17:18;;;;;;;9.68;6.20;;;12.90;99.90;;;;;;5058860;28;20116;-66
2023/09/08 04:19:49;;;;;;;7.78;5.60;;;12.90;99.90;;;;;;5087413;28;20044;-65
2023/09/08 04:22:21;;;;;;;7.05;6.35;;;12.90;99.90;;;;;;5079350;28;20041;-66
2023/09/08 04:24:54;;;;;;;8.85;6.45;;;12.90;99.90;;;;;;5078842;28;20044;-65
2023/09/08 04:27:25;;;;;;;7.88;5.70;;;12.80;99.90;;;;;;5056678;28;20052;-65
2023/09/08 04:29:57;;;;;;;6.53;5.80;;;12.80;99.90;;;;;;5073770;28;20039;-65
2023/09/08 04:32:29;;;;;;;8.45;5.90;;;12.70;99.90;;;;;;5072764;28;20048;-66
2023/09/08 04:34:56;;;;;;;8.75;6.13;;;12.70;99.90;;;;;;5049269;28;20505;-64
2023/09/08 04:37:30;;;;;;;8.23;5.60;;;12.70;99.90;;;;;;5082852;28;20446;-65
2023/09/08 04:39:57;;;;;;;9.55;7.10;;;12.70;99.90;;;;;;5068800;28;20036;-65
2023/09/08 04:42:29;;;;;;;8.07;7.25;;;12.80;99.90;;;;;;5064491;28;20548;-65
2023/09/08 04:44:56;;;;;;;7.65;6.30;;;12.80;99.90;;;;;;5077893;28;20082;-65
2023/09/08 04:47:28;;;;;;;9.40;6.40;;;12.80;99.90;;;;;;5073745;28;20126;-65
2023/09/08 04:50:00;;;;;;;9.93;6.82;;;12.80;99.90;;;;;;5086729;28;20143;-65
2023/09/08 04:52:32;;;;;;;10.48;6.30;;;12.70;99.90;;;;;;5071542;28;20051;-65
2023/09/08 04:55:05;;;;;;;8.45;6.50;;;12.70;99.90;;;;;;5067862;28;20352;-65
2023/09/08 04:57:32;;;;;;;9.35;6.53;;;12.60;99.90;;;;;;5065324;28;20063;-67
2023/09/08 04:59:59;;;;;;;8.15;5.95;;;12.60;99.90;;;;;;5075322;28;20033;-65
2023/09/08 05:02:30;;;;;;;9.50;6.18;;;12.60;99.90;;;;;;5073001;28;20044;-65
2023/09/08 05:05:04;;;;;;;9.35;6.68;;;12.60;99.90;;;;;;5055631;28;20126;-64
2023/09/08 05:07:36;;;;;;;9.07;7.30;;;12.60;99.90;;;;;;5075793;28;20040;-65
2023/09/08 05:10:08;;;;;;;11.10;6.82;;;12.60;99.90;;;;;;5073032;28;20051;-64
2023/09/08 05:12:40;;;;;;;8.65;6.05;;;12.60;99.90;;;;;;5076589;28;20444;-65
2023/09/08 05:15:15;;;;;;;7.70;6.45;;;12.60;99.90;;;;;;5075364;28;20041;-65
2023/09/08 05:17:50;;;;;;;7.18;6.47;;;12.60;99.90;;;;;;5077128;28;20039;-65
2023/09/08 05:20:24;;;;;;;7.18;5.95;;;12.60;99.90;;;;;;5075829;28;20131;-65
2023/09/08 05:22:56;;;;;;;10.38;6.15;;;12.60;99.90;;;;;;5057959;28;20036;-65
2023/09/08 05:25:28;;;;;;;8.77;6.75;;;12.60;99.90;;;;;;5074467;28;20118;-65
2023/09/08 05:28:00;;;;;;;6.53;5.82;;;12.60;99.90;;;;;;5064632;28;20470;-65
2023/09/08 05:30:32;;;;;;;8.85;6.20;;;12.60;99.90;;;;;;5076559;28;20139;-65
2023/09/08 05:33:04;;;;;;;6.63;5.93;;;12.70;99.90;;;;;;5072569;28;20044;-66
2023/09/08 05:35:36;;;;;;;9.20;6.90;;;12.70;99.90;;;;;;5087445;28;20042;-66
2023/09/08 05:38:08;;;;;;;8.40;6.93;;;12.70;99.90;;;;;;5076365;28;20066;-66
2023/09/08 05:40:40;;;;;;;7.45;6.60;;;12.70;99.90;;;;;;5069165;28;20048;-66
2023/09/08 05:43:11;;;;;;;10.52;6.40;;;12.70;99.90;;;;;;5064132;28;20102;-66
2023/09/08 05:45:43;;;;;;;10.82;6.28;;;12.80;99.90;;;;;;5068340;28;20145;-64
2023/09/08 05:48:16;;;;;;;9.18;6.10;;;12.80;99.90;;;;;;5084515;28;20044;-65
2023/09/08 05:50:43;;;;;;;20.10;9.38;;;12.80;99.90;;;;;;5077620;28;20098;-65
2023/09/08 05:53:15;;;;;;;10.25;7.05;;;12.80;99.90;;;;;;5074684;28;20050;-65
2023/09/08 05:55:47;;;;;;;12.18;7.03;;;12.80;99.90;;;;;;5056045;28;20040;-65
2023/09/08 05:58:19;;;;;;;10.88;7.13;;;12.80;99.90;;;;;;5078375;28;20508;-65
2023/09/08 06:00:51;;;;;;;11.82;8.43;;;12.80;99.90;;;;;;5088804;28;20055;-65
2023/09/08 06:03:18;;;;;;;14.88;8.48;;;12.80;99.90;;;;;;5075370;28;20047;-65
2023/09/08 06:05:50;;;;;;;12.85;8.00;;;12.90;99.90;;;;;;5071424;28;20048;-66
2023/09/08 06:08:21;;;;;;;14.77;8.10;;;12.90;99.90;;;;;;5075110;28;20068;-65
2023/09/08 06:10:54;;;;;;;11.55;8.02;;;12.90;99.90;;;;;;5053164;28;20049;-65
2023/09/08 06:13:26;;;;;;;17.20;8.98;;;13.00;99.90;;;;;;5080263;28;20040;-65
2023/09/08 06:15:58;;;;;;;16.87;9.37;;;13.00;99.90;;;;;;5070853;28;20460;-65
2023/09/08 06:18:30;;;;;;;16.95;9.38;;;13.10;99.90;;;;;;5057091;28;20335;-65
2023/09/08 06:20:57;;;;;;;10.88;8.35;;;13.10;99.90;;;;;;5069481;28;20032;-66
2023/09/08 06:23:30;;;;;;;14.13;7.13;;;13.20;99.90;;;;;;5074415;28;20032;-65
2023/09/08 06:26:02;;;;;;;9.05;6.47;;;13.20;99.90;;;;;;5071850;28;20064;-64
2023/09/08 06:28:35;;;;;;;12.35;10.13;;;13.30;99.90;;;;;;5072578;28;20036;-65
2023/09/08 06:31:07;;;;;;;39.65;35.33;;;13.40;99.90;;;;;;5088207;28;20040;-65
2023/09/08 06:33:41;;;;;;;14.80;10.88;;;13.40;99.90;;;;;;5053551;28;20036;-65
2023/09/08 06:36:07;;;;;;;11.27;8.07;;;13.50;99.90;;;;;;5070354;28;20142;-65
2023/09/08 06:38:34;;;;;;;11.57;9.52;;;13.50;99.90;;;;;;5077228;28;20127;-65
2023/09/08 06:41:10;;;;;;;12.43;8.48;;;13.50;99.90;;;;;;5068442;28;20044;-65
2023/09/08 06:43:43;;;;;;;10.32;8.43;;;13.60;99.90;;;;;;5079630;28;20153;-65
2023/09/08 06:46:21;;;;;;;11.65;8.88;;;13.70;99.90;;;;;;5068738;28;20090;-65
2023/09/08 06:48:53;;;;;;;12.30;9.73;;;13.80;99.90;;;;;;5085699;28;20046;-65
2023/09/08 06:51:24;;;;;;;11.15;9.85;;;13.90;99.90;;;;;;5078294;28;20051;-66
2023/09/08 06:53:57;;;;;;;12.15;10.02;;;14.00;99.90;;;;;;5081809;28;20524;-65
2023/09/08 06:56:36;;;;;;;12.18;9.27;;;14.00;99.90;;;;;;5062114;28;20135;-65
2023/09/08 06:59:04;;;;;;;12.70;10.45;;;14.10;99.90;;;;;;5088080;28;20123;-65
2023/09/08 07:01:34;;;;;;;13.18;10.73;;;14.20;99.90;;;;;;5070761;28;20123;-65
2023/09/08 07:04:07;;;;;;;14.77;11.75;;;14.30;99.90;;;;;;5076116;28;20527;-66
2023/09/08 07:06:41;;;;;;;15.40;11.80;;;14.40;99.90;;;;;;5086419;28;20048;-65
2023/09/08 07:09:14;;;;;;;14.77;11.77;;;14.50;99.90;;;;;;5072237;28;20131;-65
2023/09/08 07:11:46;;;;;;;13.17;10.77;;;14.60;99.90;;;;;;5060658;28;20131;-67
2023/09/08 07:14:18;;;;;;;15.38;13.77;;;14.60;99.90;;;;;;5066623;28;20512;-65
2023/09/08 07:16:50;;;;;;;20.30;12.57;;;14.70;99.90;;;;;;5070825;28;20036;-66
2023/09/08 07:19:22;;;;;;;14.77;12.98;;;14.80;99.90;;;;;;5076395;28;20040;-65
2023/09/08 07:21:54;;;;;;;15.25;13.32;;;14.90;99.90;;;;;;5078825;28;20048;-65
2023/09/08 07:24:26;;;;;;;14.40;12.45;;;15.00;99.90;;;;;;5075803;28;20564;-65
2023/09/08 07:26:58;;;;;;;16.95;14.02;;;15.10;99.90;;;;;;5070630;28;20048;-66
2023/09/08 07:29:30;;;;;;;16.70;13.55;;;15.20;99.90;;;;;;5073843;28;20040;-66
2023/09/08 07:31:58;;;;;;;15.25;12.90;;;15.30;99.90;;;;;;5076387;28;20044;-66
2023/09/08 07:34:30;;;;;;;16.98;13.60;;;15.30;99.90;;;;;;5071175;28;20638;-65
2023/09/08 07:37:02;;;;;;;16.63;14.05;;;15.40;99.90;;;;;;5069858;28;20037;-66
2023/09/08 07:39:35;;;;;;;15.52;13.40;;;15.50;99.90;;;;;;5064020;28;20040;-65
2023/09/08 07:42:08;;;;;;;16.52;12.43;;;15.60;99.90;;;;;;5070519;28;20052;-66
2023/09/08 07:44:40;;;;;;;17.63;11.50;;;15.70;99.90;;;;;;5067060;28;20126;-65
2023/09/08 07:47:12;;;;;;;15.27;12.75;;;15.80;99.90;;;;;;5083523;28;20050;-65
2023/09/08 07:49:47;;;;;;;13.70;11.52;;;15.90;99.90;;;;;;5068611;28;20433;-66
2023/09/08 07:52:14;;;;;;;15.23;12.85;;;16.10;99.90;;;;;;5084988;28;20054;-65
2023/09/08 07:54:46;;;;;;;14.90;12.98;;;16.20;99.90;;;;;;5081671;28;20044;-65
2023/09/08 07:57:17;;;;;;;17.70;13.43;;;16.30;99.90;;;;;;5080557;28;20119;-65
2023/09/08 07:59:49;;;;;;;15.38;13.27;;;16.40;99.90;;;;;;5084302;28;20044;-65
2023/09/08 08:02:22;;;;;;;14.30;12.77;;;16.50;99.90;;;;;;5080856;28;20131;-65
2023/09/08 08:04:54;;;;;;;14.85;12.25;;;16.60;99.90;;;;;;5088439;28;20127;-65
2023/09/08 08:07:26;;;;;;;14.20;12.35;;;16.70;99.90;;;;;;5082663;28;20749;-66
2023/09/08 08:09:57;;;;;;;14.52;11.82;;;16.80;99.90;;;;;;5087335;28;20486;-65
2023/09/08 08:12:29;;;;;;;14.32;12.70;;;16.90;99.90;;;;;;5075390;28;20127;-66
2023/09/08 08:15:01;;;;;;;13.55;12.05;;;17.00;99.90;;;;;;5082603;28;20039;-65
2023/09/08 08:17:33;;;;;;;16.70;12.90;;;17.10;99.90;;;;;;5086909;28;20036;-66
2023/09/08 08:20:08;;;;;;;15.13;12.45;;;17.30;99.90;;;;;;5072222;28;20068;-66
2023/09/08 08:22:39;;;;;;;18.00;13.02;;;17.40;99.90;;;;;;5076520;28;20068;-65
2023/09/08 08:25:15;;;;;;;16.63;13.50;;;17.40;99.90;;;;;;5068408;28;20044;-66
2023/09/08 08:27:47;;;;;;;13.82;12.20;;;17.60;99.90;;;;;;5086182;28;20058;-65
2023/09/08 08:30:19;;;;;;;14.00;12.60;;;17.70;99.90;;;;;;5071737;28;20059;-66
2023/09/08 08:32:45;;;;;;;14.02;12.15;;;17.80;99.90;;;;;;5083393;28;20043;-65
2023/09/08 08:35:12;;;;;;;15.93;13.35;;;17.90;99.90;;;;;;5054096;28;20606;-66
2023/09/08 08:37:45;;;;;;;15.52;13.30;;;18.00;99.90;;;;;;5088706;28;20056;-65
2023/09/08 08:40:17;;;;;;;15.65;11.75;;;18.10;99.90;;;;;;5067353;28;20052;-65
2023/09/08 08:42:55;;;;;;;30.38;22.92;;;18.20;99.90;;;;;;5074272;28;20653;-65
2023/09/08 08:45:29;;;;;;;17.83;13.60;;;18.40;99.90;;;;;;5059749;28;20174;-64
2023/09/08 08:48:04;;;;;;;15.07;13.50;;;18.40;99.90;;;;;;5076393;28;20063;-65
2023/09/08 08:50:38;;;;;;;20.20;16.60;;;18.60;99.90;;;;;;5074438;28;20123;-64
2023/09/08 08:53:12;;;;;;;28.77;20.27;;;18.70;99.90;;;;;;5091159;28;20040;-64
2023/09/08 08:55:45;;;;;;;23.98;18.70;;;18.80;99.90;;;;;;5079448;28;20040;-65
2023/09/08 08:58:24;;;;;;;19.20;17.02;;;18.90;99.90;;;;;;5090413;28;20113;-64
2023/09/08 09:00:58;;;;;;;20.75;14.88;;;19.00;99.90;;;;;;5081704;28;20040;-66
2023/09/08 09:03:31;;;;;;;;;;;19.20;99.90;;;;;;5077401;28;20036;-66
2023/09/08 09:06:03;;;;;;;16.80;12.68;;;19.30;99.90;;;;;;5085100;28;20564;-66
2023/09/08 09:08:38;;;;;;;15.43;13.63;;;19.40;99.90;;;;;;5079751;28;20459;-66
2023/09/08 09:11:11;;;;;;;13.07;10.73;;;19.60;99.90;;;;;;5067903;28;20056;-66
2023/09/08 09:13:42;;;;;;;11.27;9.27;;;19.70;99.90;;;;;;5066961;28;20596;-66
2023/09/08 09:16:14;;;;;;;13.07;9.20;;;19.80;99.90;;;;;;5068699;28;20504;-65
2023/09/08 09:18:55;;;;;;;10.30;9.27;;;20.00;99.90;;;;;;5063823;28;20040;-67
2023/09/08 09:21:23;;;;;;;13.48;11.63;;;20.10;99.90;;;;;;5054192;28;20131;-66
2023/09/08 09:23:55;;;;;;;11.40;10.20;;;20.20;99.90;;;;;;5066182;28;20040;-66
2023/09/08 09:26:27;;;;;;;9.57;8.60;;;20.30;99.90;;;;;;5070177;28;20047;-66
2023/09/08 09:28:59;;;;;;;8.38;7.30;;;20.50;99.90;;;;;;5067386;28;20047;-67
2023/09/08 09:31:31;;;;;;;8.98;8.05;;;20.60;99.90;;;;;;5066516;28;20052;-66
2023/09/08 09:34:05;;;;;;;16.95;11.82;;;20.70;99.90;;;;;;5056909;28;20127;-63
2023/09/08 09:36:42;;;;;;;18.48;12.30;;;20.80;99.90;;;;;;5064489;28;20511;-66
2023/09/08 09:39:17;;;;;;;19.10;14.88;;;20.90;99.90;;;;;;5064694;28;20126;-65
2023/09/08 09:41:56;;;;;;;11.10;9.90;;;21.10;99.90;;;;;;5052375;28;20128;-63
2023/09/08 09:44:28;;;;;;;12.50;8.73;;;21.20;99.90;;;;;;5066684;28;20076;-66
2023/09/08 09:47:01;;;;;;;11.90;10.32;;;21.30;99.90;;;;;;5053530;28;20056;-63
2023/09/08 09:49:45;;;;;;;14.45;11.07;;;21.40;99.90;;;;;;5047053;28;20052;-66
2023/09/08 09:52:14;;;;;;;10.60;9.50;;;21.50;99.90;;;;;;5058017;28;20473;-65
2023/09/08 09:54:44;;;;;;;9.82;8.82;;;21.60;99.90;;;;;;5064353;28;20044;-65
2023/09/08 09:57:19;;;;;;;10.82;9.73;;;21.80;99.90;;;;;;5064598;28;20041;-66
2023/09/08 09:59:53;;;;;;;11.65;10.05;;;21.90;99.90;;;;;;5061963;28;20044;-66
2023/09/08 10:02:25;;;;;;;10.02;9.13;;;22.00;99.90;;;;;;5069146;28;20059;-65
2023/09/08 10:05:12;;;;;;;13.35;11.43;;;22.10;99.90;;;;;;5065903;28;20040;-65
2023/09/08 10:07:45;;;;;;;10.32;9.32;;;22.20;99.90;;;;;;5069908;28;20040;-65
2023/09/08 10:10:18;;;;;;;13.85;10.30;;;22.30;99.90;;;;;;5051006;28;20060;-66
2023/09/08 10:12:55;;;;;;;;;;;22.40;99.90;;;;;;5068179;28;20136;-65
2023/09/08 10:15:23;;;;;;;11.10;10.00;;;22.50;99.90;;;;;;5066424;28;20705;-66
2023/09/08 10:17:57;;;;;;;12.32;9.77;;;22.60;99.90;;;;;;5066039;28;20052;-65
2023/09/08 10:20:24;;;;;;;12.93;11.02;;;22.60;99.90;;;;;;5055633;28;20419;-65
2023/09/08 10:23:02;;;;;;;11.52;9.55;;;22.60;99.90;;;;;;5064686;28;20065;-64
2023/09/08 10:25:37;;;;;;;11.40;9.73;;;22.70;99.90;;;;;;5063820;28;20032;-66
2023/09/08 10:28:06;;;;;;;10.77;9.57;;;22.80;99.90;;;;;;5049541;28;20048;-67
2023/09/08 10:30:38;;;;;;;10.15;9.15;;;22.90;99.90;;;;;;5065452;28;20505;-66
2023/09/08 10:33:11;;;;;;;12.27;8.93;;;23.10;99.90;;;;;;5069015;28;20045;-66
2023/09/08 10:35:44;;;;;;;11.27;9.60;;;23.20;99.90;;;;;;5066347;28;20048;-66
2023/09/08 10:38:31;;;;;;;11.03;9.83;;;23.20;99.90;;;;;;5073744;28;20461;-67
2023/09/08 10:41:17;;;;;;;9.95;8.90;;;23.30;99.90;;;;;;5057096;28;20293;-66
2023/09/08 10:43:54;;;;;;;12.88;9.75;;;23.40;99.90;;;;;;5074460;28;20158;-66
2023/09/08 10:46:31;;;;;;;13.25;11.35;;;23.50;99.90;;;;;;5060285;28;20036;-65
2023/09/08 10:49:03;;;;;;;12.35;10.00;;;23.50;99.90;;;;;;5071958;28;20072;-65
2023/09/08 10:51:35;;;;;;;11.82;9.93;;;23.60;99.90;;;;;;5071636;28;20052;-65
2023/09/08 10:54:07;;;;;;;9.80;8.90;;;23.70;99.90;;;;;;5066251;28;20530;-66
2023/09/08 10:56:55;;;;;;;10.55;9.50;;;23.70;99.90;;;;;;5063480;28;20044;-66
2023/09/08 10:59:35;;;;;;;12.10;10.00;;;23.80;99.90;;;;;;5053848;28;20033;-65
2023/09/08 11:02:07;;;;;;;11.07;9.93;;;24.00;99.90;;;;;;5063085;28;20038;-65
2023/09/08 11:04:36;;;;;;;10.35;9.25;;;24.00;99.90;;;;;;5065348;28;20055;-66
2023/09/08 11:07:07;;;;;;;10.43;9.45;;;24.10;99.90;;;;;;5056922;28;20044;-66
2023/09/08 11:09:39;;;;;;;10.02;9.02;;;24.20;99.90;;;;;;5067160;28;20036;-66
2023/09/08 11:12:08;;;;;;;11.32;8.25;;;24.20;99.90;;;;;;5065762;28;20037;-66
2023/09/08 11:14:40;;;;;;;12.13;10.45;;;24.20;99.90;;;;;;5065952;28;20115;-66
2023/09/08 11:17:07;;;;;;;9.55;8.65;;;24.30;99.90;;;;;;5066874;28;20041;-66
2023/09/08 11:19:47;;;;;;;10.98;9.10;;;24.30;99.90;;;;;;5062262;28;20513;-66
2023/09/08 11:22:21;;;;;;;10.77;8.88;;;24.40;99.90;;;;;;5067547;28;20135;-66
2023/09/08 11:24:56;;;;;;;9.70;8.70;;;24.50;99.90;;;;;;5060846;28;20047;-67
2023/09/08 11:27:29;;;;;;;10.35;8.65;;;24.60;99.90;;;;;;5059416;28;20719;-66
2023/09/08 11:30:01;;;;;;;10.18;8.85;;;24.70;99.90;;;;;;5057752;28;20524;-66
2023/09/08 11:32:33;;;;;;;10.27;8.90;;;24.80;99.90;;;;;;5064453;28;20047;-66
2023/09/08 11:35:07;;;;;;;10.57;9.68;;;24.90;99.90;;;;;;5045618;28;20052;-67
2023/09/08 11:37:41;;;;;;;11.57;9.55;;;25.00;99.90;;;;;;5054388;28;20040;-66
2023/09/08 11:40:13;;;;;;;10.82;9.35;;;25.00;99.90;;;;;;5061742;28;20041;-66
2023/09/08 11:42:46;;;;;;;11.25;9.25;;;25.20;99.90;;;;;;5065226;28;20049;-66
2023/09/08 11:45:21;;;;;;;8.90;8.00;;;25.20;99.90;;;;;;5066941;28;20094;-66
2023/09/08 11:47:49;;;;;;;8.45;7.55;;;25.20;99.90;;;;;;5065528;28;20644;-66
2023/09/08 11:50:21;;;;;;;8.32;7.53;;;25.20;99.90;;;;;;5065930;28;20044;-65
2023/09/08 11:52:49;;;;;;;9.38;7.90;;;25.20;99.90;;;;;;5065319;28;20090;-66
2023/09/08 11:55:23;;;;;;;8.90;7.57;;;25.30;99.90;;;;;;5050482;28;20045;-65
2023/09/08 11:58:00;;;;;;;7.93;7.10;;;25.30;99.90;;;;;;5054045;28;20039;-66
2023/09/08 12:00:32;;;;;;;7.63;6.90;;;25.40;99.90;;;;;;5063683;28;20468;-66
2023/09/08 12:03:15;;;;;;;9.30;8.35;;;25.50;99.90;;;;;;5058130;28;20532;-66
2023/09/08 12:05:51;;;;;;;9.10;6.90;;;25.60;99.90;;;;;;5060768;28;20055;-66
2023/09/08 12:08:18;;;;;;;7.95;7.15;;;25.60;99.90;;;;;;5051302;28;20390;-66
2023/09/08 12:10:53;;;;;;;8.50;7.30;;;25.70;99.90;;;;;;5054457;28;20045;-66
2023/09/08 12:13:25;;;;;;;7.82;7.03;;;25.80;99.90;;;;;;5065758;28;20048;-66
2023/09/08 12:15:52;;;;;;;8.55;7.40;;;25.80;99.90;;;;;;5049613;28;20143;-66
2023/09/08 12:18:38;;;;;;;6.93;6.20;;;25.90;99.90;;;;;;5066369;28;20041;-66
2023/09/08 12:21:11;;;;;;;7.20;6.53;;;25.90;99.90;;;;;;5066079;28;20404;-66
2023/09/08 12:23:52;;;;;;;8.00;7.05;;;26.00;99.90;;;;;;5062324;28;20033;-66
2023/09/08 12:26:20;;;;;;;10.50;8.02;;;26.00;99.90;;;;;;5067593;28;20036;-66
2023/09/08 12:28:52;;;;;;;10.30;7.88;;;26.20;99.90;;;;;;5060445;28;20540;-66
2023/09/08 12:31:24;;;;;;;10.38;8.93;;;26.30;99.90;;;;;;5067211;28;20048;-66
2023/09/08 12:33:56;;;;;;;7.33;6.60;;;26.30;99.90;;;;;;5058494;28;20055;-67
2023/09/08 12:36:28;;;;;;;7.47;6.78;;;26.30;99.90;;;;;;5064986;28;20064;-66
2023/09/08 12:39:04;;;;;;;7.53;6.78;;;26.30;99.90;;;;;;5064875;28;20408;-67
2023/09/08 12:41:36;;;;;;;9.68;7.03;;;26.30;99.90;;;;;;5067272;28;20047;-67
2023/09/08 12:44:07;;;;;;;7.50;6.80;;;26.30;99.90;;;;;;5046703;28;20060;-66
2023/09/08 12:46:39;;;;;;;7.53;6.75;;;26.30;99.90;;;;;;5051925;28;20564;-66
2023/09/08 12:49:11;;;;;;;7.90;7.10;;;26.30;99.90;;;;;;5065367;28;20048;-66
2023/09/08 12:51:44;;;;;;;7.25;6.65;;;26.30;99.90;;;;;;5065330;28;20047;-66
2023/09/08 12:54:11;;;;;;;8.70;6.63;;;26.40;99.90;;;;;;5046505;28;20029;-66
2023/09/08 12:56:43;;;;;;;7.03;6.40;;;26.50;99.90;;;;;;5066416;28;20044;-66
2023/09/08 12:59:15;;;;;;;7.72;7.03;;;26.60;99.90;;;;;;5063436;28;20033;-66
2023/09/08 13:01:47;;;;;;;11.77;6.93;;;26.60;99.90;;;;;;5050651;28;20041;-66
2023/09/08 13:04:19;;;;;;;8.25;6.60;;;26.70;99.90;;;;;;5060931;28;20035;-66
2023/09/08 13:06:51;;;;;;;7.80;7.07;;;26.80;99.90;;;;;;5061442;28;20055;-66
2023/09/08 13:09:23;;;;;;;10.45;7.97;;;26.90;99.90;;;;;;5046394;28;20572;-67